createdAt,value
2018-08-18T00:00:16.953Z,1014.76
2018-08-18T00:01:16.941Z,1014.76
2018-08-18T00:02:16.970Z,1014.80
2018-08-18T00:03:16.917Z,1014.80
2018-08-18T00:04:16.912Z,1014.83
2018-08-18T00:05:16.899Z,1014.85
2018-08-18T00:06:16.895Z,1014.83
2018-08-18T00:07:16.902Z,1014.82
2018-08-18T00:08:16.877Z,1014.86
2018-08-18T00:09:16.866Z,1014.84
2018-08-18T00:10:16.844Z,1014.86
2018-08-18T00:11:16.797Z,1014.84
2018-08-18T00:12:16.848Z,1014.88
2018-08-18T00:13:16.779Z,1014.85
2018-08-18T00:14:16.818Z,1014.87
2018-08-18T00:15:16.792Z,1014.91
2018-08-18T00:16:16.777Z,1014.90
2018-08-18T00:17:16.805Z,1014.93
2018-08-18T00:18:16.760Z,1014.92
2018-08-18T00:19:16.833Z,1014.92
2018-08-18T00:20:16.746Z,1014.92
2018-08-18T00:21:16.731Z,1014.92
2018-08-18T00:22:16.737Z,1014.91
2018-08-18T00:23:16.867Z,1014.90
2018-08-18T00:24:16.700Z,1014.89
2018-08-18T00:25:16.683Z,1014.88
2018-08-18T00:26:16.674Z,1014.91
2018-08-18T00:27:16.665Z,1014.91
2018-08-18T00:28:16.628Z,1014.90
2018-08-18T00:29:16.671Z,1014.90
2018-08-18T00:30:16.633Z,1014.91
2018-08-18T00:31:16.576Z,1014.90
2018-08-18T00:32:16.619Z,1014.92
2018-08-18T00:33:16.655Z,1014.88
2018-08-18T00:34:16.684Z,1014.89
2018-08-18T00:35:16.585Z,1014.89
2018-08-18T00:36:16.573Z,1014.91
2018-08-18T00:37:16.580Z,1014.91
2018-08-18T00:38:16.568Z,1014.87
2018-08-18T00:39:16.571Z,1014.89
2018-08-18T00:40:16.527Z,1014.87
2018-08-18T00:41:16.475Z,1014.88
2018-08-18T00:42:16.516Z,1014.94
2018-08-18T00:43:16.534Z,1014.91
2018-08-18T00:44:16.481Z,1014.93
2018-08-18T00:45:16.468Z,1014.94
2018-08-18T00:46:16.460Z,1014.95
2018-08-18T00:47:16.452Z,1014.97
2018-08-18T00:48:16.465Z,1014.96
2018-08-18T00:49:16.428Z,1014.98
2018-08-18T00:50:16.412Z,1014.96
2018-08-18T00:51:16.360Z,1014.99
2018-08-18T00:52:16.354Z,1014.99
2018-08-18T00:53:16.411Z,1014.95
2018-08-18T00:54:16.375Z,1015.00
2018-08-18T00:55:16.318Z,1014.97
2018-08-18T00:56:16.351Z,1015.00
2018-08-18T00:57:16.294Z,1014.99
2018-08-18T00:58:16.356Z,1014.96
2018-08-18T00:59:16.322Z,1014.98
2018-08-18T01:00:16.322Z,1014.97
2018-08-18T01:01:16.353Z,1014.96
2018-08-18T01:02:16.284Z,1014.98
2018-08-18T01:03:16.425Z,1015.00
2018-08-18T01:04:16.273Z,1014.96
2018-08-18T01:05:16.258Z,1015.03
2018-08-18T01:06:16.246Z,1015.06
2018-08-18T01:07:16.235Z,1015.02
2018-08-18T01:08:16.245Z,1015.00
2018-08-18T01:09:16.214Z,1015.02
2018-08-18T01:10:16.198Z,1014.94
2018-08-18T01:11:16.246Z,1015.00
2018-08-18T01:12:16.198Z,1014.97
2018-08-18T01:13:16.157Z,1015.01
2018-08-18T01:14:16.230Z,1015.03
2018-08-18T01:15:16.148Z,1015.01
2018-08-18T01:16:16.123Z,1015.01
2018-08-18T01:17:16.124Z,1015.05
2018-08-18T01:18:16.143Z,1015.06
2018-08-18T01:19:16.055Z,1015.06
2018-08-18T01:20:16.090Z,1015.12
2018-08-18T01:21:16.115Z,1015.10
2018-08-18T01:22:16.185Z,1015.12
2018-08-18T01:23:16.034Z,1015.09
2018-08-18T01:24:16.056Z,1015.09
2018-08-18T01:25:16.036Z,1015.10
2018-08-18T01:26:16.044Z,1015.10
2018-08-18T01:27:16.021Z,1015.05
2018-08-18T01:28:16.059Z,1015.16
2018-08-18T01:29:15.966Z,1015.18
2018-08-18T01:30:15.983Z,1015.18
2018-08-18T01:31:15.980Z,1015.19
2018-08-18T01:32:15.959Z,1015.20
2018-08-18T01:33:15.926Z,1015.19
2018-08-18T01:34:15.912Z,1015.18
2018-08-18T01:35:15.942Z,1015.19
2018-08-18T01:36:15.915Z,1015.20
2018-08-18T01:37:15.910Z,1015.20
2018-08-18T01:38:15.914Z,1015.21
2018-08-18T01:39:15.837Z,1015.22
2018-08-18T01:40:15.881Z,1015.26
2018-08-18T01:41:15.868Z,1015.29
2018-08-18T01:42:15.853Z,1015.30
2018-08-18T01:43:15.853Z,1015.23
2018-08-18T01:44:15.866Z,1015.27
2018-08-18T01:45:15.818Z,1015.27
2018-08-18T01:46:15.811Z,1015.27
2018-08-18T01:47:15.760Z,1015.28
2018-08-18T01:48:15.826Z,1015.29
2018-08-18T01:49:15.804Z,1015.26
2018-08-18T01:50:15.766Z,1015.22
2018-08-18T01:51:15.760Z,1015.25
2018-08-18T01:52:15.750Z,1015.24
2018-08-18T01:53:15.732Z,1015.25
2018-08-18T01:54:15.723Z,1015.25
2018-08-18T01:55:15.673Z,1015.22
2018-08-18T01:56:15.708Z,1015.22
2018-08-18T01:57:15.686Z,1015.24
2018-08-18T01:58:15.679Z,1015.28
2018-08-18T01:59:15.693Z,1015.31
2018-08-18T02:00:15.655Z,1015.25
2018-08-18T02:01:15.645Z,1015.26
2018-08-18T02:02:15.636Z,1015.26
2018-08-18T02:03:15.632Z,1015.30
2018-08-18T02:04:15.635Z,1015.27
2018-08-18T02:05:15.614Z,1015.24
2018-08-18T02:06:15.592Z,1015.22
2018-08-18T02:07:15.581Z,1015.23
2018-08-18T02:08:15.584Z,1015.26
2018-08-18T02:09:15.740Z,1015.24
2018-08-18T02:10:15.552Z,1015.28
2018-08-18T02:11:15.538Z,1015.28
2018-08-18T02:12:15.526Z,1015.26
2018-08-18T02:13:15.518Z,1015.30
2018-08-18T02:14:15.522Z,1015.28
2018-08-18T02:15:15.605Z,1015.27
2018-08-18T02:16:15.482Z,1015.31
2018-08-18T02:17:15.479Z,1015.28
2018-08-18T02:18:15.474Z,1015.32
2018-08-18T02:19:15.600Z,1015.29
2018-08-18T02:20:15.444Z,1015.27
2018-08-18T02:21:15.392Z,1015.29
2018-08-18T02:22:15.419Z,1015.31
2018-08-18T02:23:15.407Z,1015.32
2018-08-18T02:24:15.424Z,1015.31
2018-08-18T02:25:15.471Z,1015.33
2018-08-18T02:26:15.372Z,1015.34
2018-08-18T02:27:15.366Z,1015.35
2018-08-18T02:28:15.352Z,1015.37
2018-08-18T02:29:15.423Z,1015.35
2018-08-18T02:30:15.329Z,1015.33
2018-08-18T02:31:15.343Z,1015.33
2018-08-18T02:32:15.316Z,1015.33
2018-08-18T02:33:15.296Z,1015.36
2018-08-18T02:34:15.321Z,1015.29
2018-08-18T02:35:15.276Z,1015.33
2018-08-18T02:36:15.266Z,1015.30
2018-08-18T02:37:15.253Z,1015.25
2018-08-18T02:38:15.244Z,1015.28
2018-08-18T02:39:15.256Z,1015.28
2018-08-18T02:40:15.257Z,1015.26
2018-08-18T02:41:15.211Z,1015.25
2018-08-18T02:42:15.198Z,1015.24
2018-08-18T02:43:15.185Z,1015.25
2018-08-18T02:44:15.223Z,1015.24
2018-08-18T02:45:15.170Z,1015.24
2018-08-18T02:46:15.156Z,1015.26
2018-08-18T02:47:15.139Z,1015.23
2018-08-18T02:48:15.142Z,1015.23
2018-08-18T02:49:15.125Z,1015.21
2018-08-18T02:50:15.147Z,1015.19
2018-08-18T02:51:15.115Z,1015.20
2018-08-18T02:52:15.042Z,1015.19
2018-08-18T02:53:15.087Z,1015.23
2018-08-18T02:54:15.070Z,1015.24
2018-08-18T02:55:15.041Z,1015.23
2018-08-18T02:56:15.055Z,1015.27
2018-08-18T02:57:15.035Z,1015.28
2018-08-18T02:58:14.986Z,1015.32
2018-08-18T02:59:15.020Z,1015.32
2018-08-18T03:00:15.030Z,1015.33
2018-08-18T03:01:14.987Z,1015.30
2018-08-18T03:02:14.939Z,1015.30
2018-08-18T03:03:14.974Z,1015.35
2018-08-18T03:04:14.956Z,1015.30
2018-08-18T03:05:14.971Z,1015.38
2018-08-18T03:06:14.896Z,1015.34
2018-08-18T03:07:14.927Z,1015.34
2018-08-18T03:08:14.920Z,1015.39
2018-08-18T03:09:14.911Z,1015.41
2018-08-18T03:10:14.918Z,1015.43
2018-08-18T03:11:14.883Z,1015.43
2018-08-18T03:12:14.837Z,1015.43
2018-08-18T03:13:14.856Z,1015.41
2018-08-18T03:14:14.810Z,1015.43
2018-08-18T03:15:14.880Z,1015.40
2018-08-18T03:16:14.828Z,1015.47
2018-08-18T03:17:14.818Z,1015.47
2018-08-18T03:18:14.764Z,1015.41
2018-08-18T03:19:14.799Z,1015.41
2018-08-18T03:20:14.806Z,1015.45
2018-08-18T03:21:14.771Z,1015.49
2018-08-18T03:22:14.768Z,1015.44
2018-08-18T03:23:14.712Z,1015.45
2018-08-18T03:24:14.805Z,1015.49
2018-08-18T03:25:14.753Z,1015.46
2018-08-18T03:26:14.723Z,1015.50
2018-08-18T03:27:14.716Z,1015.47
2018-08-18T03:28:14.703Z,1015.51
2018-08-18T03:29:14.754Z,1015.48
2018-08-18T03:30:14.699Z,1015.45
2018-08-18T03:31:14.664Z,1015.47
2018-08-18T03:32:14.653Z,1015.49
2018-08-18T03:33:14.597Z,1015.44
2018-08-18T03:34:14.631Z,1015.48
2018-08-18T03:35:14.646Z,1015.47
2018-08-18T03:36:14.605Z,1015.48
2018-08-18T03:37:14.601Z,1015.48
2018-08-18T03:38:14.591Z,1015.47
2018-08-18T03:39:14.535Z,1015.47
2018-08-18T03:40:14.592Z,1015.49
2018-08-18T03:41:14.579Z,1015.51
2018-08-18T03:42:14.538Z,1015.48
2018-08-18T03:43:14.488Z,1015.52
2018-08-18T03:44:14.524Z,1015.49
2018-08-18T03:45:14.529Z,1015.56
2018-08-18T03:46:14.458Z,1015.59
2018-08-18T03:47:14.460Z,1015.55
2018-08-18T03:48:14.474Z,1015.55
2018-08-18T03:49:14.469Z,1015.58
2018-08-18T03:50:14.481Z,1015.61
2018-08-18T03:51:14.446Z,1015.60
2018-08-18T03:52:14.449Z,1015.62
2018-08-18T03:53:14.421Z,1015.67
2018-08-18T03:54:14.419Z,1015.65
2018-08-18T03:55:14.472Z,1015.72
2018-08-18T03:56:14.390Z,1015.68
2018-08-18T03:57:14.378Z,1015.65
2018-08-18T03:58:14.365Z,1015.63
2018-08-18T03:59:14.360Z,1015.70
2018-08-18T04:00:14.345Z,1015.66
2018-08-18T04:01:14.361Z,1015.73
2018-08-18T04:02:14.297Z,1015.73
2018-08-18T04:03:14.311Z,1015.73
2018-08-18T04:04:14.302Z,1015.70
2018-08-18T04:05:14.291Z,1015.72
2018-08-18T04:06:14.309Z,1015.74
2018-08-18T04:07:14.268Z,1015.78
2018-08-18T04:08:14.259Z,1015.76
2018-08-18T04:09:14.299Z,1015.76
2018-08-18T04:10:14.247Z,1015.77
2018-08-18T04:11:14.261Z,1015.78
2018-08-18T04:12:14.221Z,1015.78
2018-08-18T04:13:14.204Z,1015.74
2018-08-18T04:14:14.198Z,1015.77
2018-08-18T04:15:14.190Z,1015.81
2018-08-18T04:16:14.153Z,1015.76
2018-08-18T04:17:14.213Z,1015.77
2018-08-18T04:18:14.148Z,1015.74
2018-08-18T04:19:14.149Z,1015.75
2018-08-18T04:20:14.084Z,1015.77
2018-08-18T04:21:14.233Z,1015.73
2018-08-18T04:22:14.107Z,1015.73
2018-08-18T04:23:14.101Z,1015.77
2018-08-18T04:24:14.083Z,1015.75
2018-08-18T04:25:14.142Z,1015.75
2018-08-18T04:26:14.094Z,1015.74
2018-08-18T04:27:14.078Z,1015.74
2018-08-18T04:28:14.054Z,1015.75
2018-08-18T04:29:14.033Z,1015.79
2018-08-18T04:30:14.026Z,1015.78
2018-08-18T04:31:14.048Z,1015.72
2018-08-18T04:32:13.995Z,1015.80
2018-08-18T04:33:13.997Z,1015.80
2018-08-18T04:34:13.977Z,1015.80
2018-08-18T04:35:14.023Z,1015.79
2018-08-18T04:36:13.979Z,1015.78
2018-08-18T04:37:13.951Z,1015.68
2018-08-18T04:38:13.933Z,1015.72
2018-08-18T04:39:13.878Z,1015.73
2018-08-18T04:40:13.906Z,1015.71
2018-08-18T04:41:13.931Z,1015.70
2018-08-18T04:42:13.887Z,1015.74
2018-08-18T04:43:13.876Z,1015.78
2018-08-18T04:44:13.837Z,1015.76
2018-08-18T04:45:13.862Z,1015.77
2018-08-18T04:46:13.872Z,1015.78
2018-08-18T04:47:13.831Z,1015.80
2018-08-18T04:48:13.826Z,1015.81
2018-08-18T04:49:13.811Z,1015.81
2018-08-18T04:50:13.804Z,1015.81
2018-08-18T04:51:13.808Z,1015.80
2018-08-18T04:52:13.785Z,1015.81
2018-08-18T04:53:13.768Z,1015.80
2018-08-18T04:54:13.764Z,1015.79
2018-08-18T04:55:13.705Z,1015.80
2018-08-18T04:56:13.763Z,1015.85
2018-08-18T04:57:13.729Z,1015.77
2018-08-18T04:58:13.716Z,1015.78
2018-08-18T04:59:13.715Z,1015.77
2018-08-18T05:00:13.696Z,1015.79
2018-08-18T05:01:13.706Z,1015.78
2018-08-18T05:02:13.673Z,1015.80
2018-08-18T05:03:13.658Z,1015.81
2018-08-18T05:04:13.648Z,1015.80
2018-08-18T05:05:13.747Z,1015.81
2018-08-18T05:06:13.669Z,1015.82
2018-08-18T05:07:13.625Z,1015.83
2018-08-18T05:08:13.607Z,1015.83
2018-08-18T05:09:13.595Z,1015.82
2018-08-18T05:10:13.608Z,1015.87
2018-08-18T05:11:13.547Z,1015.88
2018-08-18T05:12:13.583Z,1015.86
2018-08-18T05:13:13.550Z,1015.86
2018-08-18T05:14:13.523Z,1015.86
2018-08-18T05:15:13.530Z,1015.91
2018-08-18T05:16:13.545Z,1015.92
2018-08-18T05:17:13.485Z,1015.93
2018-08-18T05:18:13.496Z,1015.95
2018-08-18T05:19:13.482Z,1015.96
2018-08-18T05:20:13.439Z,1015.94
2018-08-18T05:21:13.464Z,1015.96
2018-08-18T05:22:13.476Z,1015.98
2018-08-18T05:23:20.972Z,1015.94
2018-08-18T05:24:13.507Z,1015.88
2018-08-18T05:25:13.420Z,1015.90
2018-08-18T05:26:13.411Z,1015.90
2018-08-18T05:27:13.431Z,1015.88
2018-08-18T05:28:13.390Z,1015.87
2018-08-18T05:29:13.388Z,1015.89
2018-08-18T05:30:13.368Z,1015.89
2018-08-18T05:31:13.371Z,1015.94
2018-08-18T05:32:13.374Z,1015.88
2018-08-18T05:33:13.287Z,1015.92
2018-08-18T05:34:13.284Z,1015.92
2018-08-18T05:35:13.314Z,1015.92
2018-08-18T05:36:13.259Z,1015.91
2018-08-18T05:37:13.317Z,1015.91
2018-08-18T05:38:13.279Z,1015.97
2018-08-18T05:39:13.272Z,1015.97
2018-08-18T05:40:13.219Z,1015.96
2018-08-18T05:41:13.264Z,1015.96
2018-08-18T05:42:13.262Z,1015.99
2018-08-18T05:43:13.228Z,1015.98
2018-08-18T05:44:13.224Z,1016.00
2018-08-18T05:45:13.209Z,1015.98
2018-08-18T05:46:13.198Z,1015.96
2018-08-18T05:47:13.226Z,1015.98
2018-08-18T05:48:13.186Z,1015.95
2018-08-18T05:49:13.168Z,1015.94
2018-08-18T05:50:13.153Z,1016.00
2018-08-18T05:51:13.097Z,1015.97
2018-08-18T05:52:13.112Z,1016.00
2018-08-18T05:53:13.122Z,1015.96
2018-08-18T05:54:13.068Z,1016.00
2018-08-18T05:55:13.096Z,1016.00
2018-08-18T05:56:13.089Z,1016.02
2018-08-18T05:57:13.100Z,1016.02
2018-08-18T05:58:13.062Z,1016.03
2018-08-18T05:59:13.058Z,1016.02
2018-08-18T06:00:13.042Z,1016.00
2018-08-18T06:01:13.033Z,1016.02
2018-08-18T06:02:12.999Z,1015.98
2018-08-18T06:03:20.542Z,1016.01
2018-08-18T06:04:12.999Z,1015.99
2018-08-18T06:05:12.991Z,1016.00
2018-08-18T06:06:12.973Z,1016.00
2018-08-18T06:07:12.956Z,1016.03
2018-08-18T06:08:12.953Z,1015.98
2018-08-18T06:09:12.950Z,1015.99
2018-08-18T06:10:12.940Z,1016.00
2018-08-18T06:11:12.924Z,1015.99
2018-08-18T06:12:13.037Z,1015.98
2018-08-18T06:13:12.968Z,1016.05
2018-08-18T06:14:12.889Z,1016.02
2018-08-18T06:15:12.882Z,1016.04
2018-08-18T06:16:12.874Z,1016.06
2018-08-18T06:17:12.898Z,1016.08
2018-08-18T06:18:12.874Z,1016.07
2018-08-18T06:19:12.794Z,1016.09
2018-08-18T06:20:12.785Z,1016.05
2018-08-18T06:21:12.819Z,1016.07
2018-08-18T06:22:12.828Z,1016.11
2018-08-18T06:23:12.749Z,1016.13
2018-08-18T06:24:12.778Z,1016.09
2018-08-18T06:25:12.782Z,1016.15
2018-08-18T06:26:12.760Z,1016.07
2018-08-18T06:27:12.796Z,1016.14
2018-08-18T06:28:12.735Z,1016.13
2018-08-18T06:29:12.693Z,1016.19
2018-08-18T06:30:12.720Z,1016.15
2018-08-18T06:31:12.714Z,1016.16
2018-08-18T06:32:12.675Z,1016.16
2018-08-18T06:33:12.697Z,1016.18
2018-08-18T06:34:12.673Z,1016.18
2018-08-18T06:35:12.665Z,1016.16
2018-08-18T06:36:12.653Z,1016.13
2018-08-18T06:37:12.639Z,1016.19
2018-08-18T06:38:12.651Z,1016.14
2018-08-18T06:39:12.574Z,1016.22
2018-08-18T06:40:12.613Z,1016.22
2018-08-18T06:41:12.680Z,1016.30
2018-08-18T06:42:12.595Z,1016.20
2018-08-18T06:43:12.600Z,1016.23
2018-08-18T06:44:12.572Z,1016.26
2018-08-18T06:45:12.562Z,1016.25
2018-08-18T06:46:12.551Z,1016.26
2018-08-18T06:47:12.536Z,1016.33
2018-08-18T06:48:12.550Z,1016.27
2018-08-18T06:49:12.513Z,1016.29
2018-08-18T06:50:12.503Z,1016.29
2018-08-18T06:51:12.492Z,1016.33
2018-08-18T06:52:12.482Z,1016.32
2018-08-18T06:53:12.493Z,1016.27
2018-08-18T06:54:12.460Z,1016.33
2018-08-18T06:55:12.659Z,1016.33
2018-08-18T06:56:12.444Z,1016.29
2018-08-18T06:57:12.392Z,1016.32
2018-08-18T06:58:12.442Z,1016.30
2018-08-18T06:59:12.413Z,1016.32
2018-08-18T07:00:12.411Z,1016.33
2018-08-18T07:01:12.392Z,1016.29
2018-08-18T07:02:12.379Z,1016.31
2018-08-18T07:03:12.391Z,1016.33
2018-08-18T07:04:12.370Z,1016.35
2018-08-18T07:05:12.347Z,1016.35
2018-08-18T07:06:12.337Z,1016.37
2018-08-18T07:07:12.365Z,1016.34
2018-08-18T07:08:12.346Z,1016.38
2018-08-18T07:09:12.321Z,1016.36
2018-08-18T07:10:12.276Z,1016.34
2018-08-18T07:11:12.285Z,1016.36
2018-08-18T07:12:12.293Z,1016.33
2018-08-18T07:13:12.293Z,1016.38
2018-08-18T07:14:12.262Z,1016.39
2018-08-18T07:15:12.250Z,1016.38
2018-08-18T07:16:12.248Z,1016.36
2018-08-18T07:17:12.279Z,1016.41
2018-08-18T07:18:12.237Z,1016.38
2018-08-18T07:19:12.156Z,1016.42
2018-08-18T07:20:12.155Z,1016.42
2018-08-18T07:21:12.209Z,1016.39
2018-08-18T07:22:12.195Z,1016.40
2018-08-18T07:23:12.185Z,1016.40
2018-08-18T07:24:12.159Z,1016.43
2018-08-18T07:25:12.137Z,1016.41
2018-08-18T07:26:12.127Z,1016.44
2018-08-18T07:27:12.121Z,1016.46
2018-08-18T07:28:12.148Z,1016.45
2018-08-18T07:29:12.218Z,1016.43
2018-08-18T07:30:12.096Z,1016.44
2018-08-18T07:31:12.098Z,1016.45
2018-08-18T07:32:12.066Z,1016.46
2018-08-18T07:33:12.088Z,1016.44
2018-08-18T07:34:12.045Z,1016.47
2018-08-18T07:35:12.048Z,1016.46
2018-08-18T07:36:12.026Z,1016.43
2018-08-18T07:37:12.109Z,1016.45
2018-08-18T07:38:12.046Z,1016.37
2018-08-18T07:39:12.081Z,1016.42
2018-08-18T07:40:11.988Z,1016.41
2018-08-18T07:41:11.982Z,1016.42
2018-08-18T07:42:11.963Z,1016.39
2018-08-18T07:43:11.997Z,1016.46
2018-08-18T07:44:11.915Z,1016.44
2018-08-18T07:45:11.937Z,1016.43
2018-08-18T07:46:11.959Z,1016.42
2018-08-18T07:47:11.908Z,1016.43
2018-08-18T07:48:11.980Z,1016.43
2018-08-18T07:49:11.896Z,1016.35
2018-08-18T07:50:11.880Z,1016.37
2018-08-18T07:51:11.873Z,1016.35
2018-08-18T07:52:11.874Z,1016.35
2018-08-18T07:53:11.892Z,1016.38
2018-08-18T07:54:11.838Z,1016.37
2018-08-18T07:55:11.834Z,1016.34
2018-08-18T07:56:11.819Z,1016.37
2018-08-18T07:57:11.806Z,1016.34
2018-08-18T07:58:11.770Z,1016.34
2018-08-18T07:59:11.787Z,1016.36
2018-08-18T08:00:11.838Z,1016.36
2018-08-18T08:01:11.774Z,1016.36
2018-08-18T08:02:11.754Z,1016.38
2018-08-18T08:03:11.737Z,1016.35
2018-08-18T08:04:11.735Z,1016.32
2018-08-18T08:05:11.821Z,1016.36
2018-08-18T08:06:11.728Z,1016.29
2018-08-18T08:07:11.715Z,1016.37
2018-08-18T08:08:11.713Z,1016.32
2018-08-18T08:09:11.698Z,1016.37
2018-08-18T08:10:11.675Z,1016.44
2018-08-18T08:11:11.664Z,1016.39
2018-08-18T08:12:11.656Z,1016.43
2018-08-18T08:13:11.652Z,1016.38
2018-08-18T08:14:11.633Z,1016.39
2018-08-18T08:15:11.629Z,1016.35
2018-08-18T08:16:11.613Z,1016.41
2018-08-18T08:17:11.608Z,1016.44
2018-08-18T08:18:11.625Z,1016.40
2018-08-18T08:19:11.551Z,1016.40
2018-08-18T08:20:11.589Z,1016.43
2018-08-18T08:21:11.560Z,1016.40
2018-08-18T08:22:11.553Z,1016.46
2018-08-18T08:23:11.521Z,1016.47
2018-08-18T08:24:11.532Z,1016.41
2018-08-18T08:25:11.517Z,1016.40
2018-08-18T08:26:11.526Z,1016.43
2018-08-18T08:27:11.518Z,1016.41
2018-08-18T08:28:11.485Z,1016.40
2018-08-18T08:29:11.588Z,1016.44
2018-08-18T08:30:11.463Z,1016.42
2018-08-18T08:31:11.480Z,1016.40
2018-08-18T08:32:11.454Z,1016.39
2018-08-18T08:33:11.432Z,1016.41
2018-08-18T08:34:11.563Z,1016.43
2018-08-18T08:35:11.412Z,1016.38
2018-08-18T08:36:11.405Z,1016.39
2018-08-18T08:37:11.354Z,1016.40
2018-08-18T08:38:11.386Z,1016.38
2018-08-18T08:39:11.409Z,1016.34
2018-08-18T08:40:11.360Z,1016.32
2018-08-18T08:41:11.367Z,1016.29
2018-08-18T08:42:11.342Z,1016.35
2018-08-18T08:43:11.351Z,1016.32
2018-08-18T08:44:11.356Z,1016.30
2018-08-18T08:45:11.263Z,1016.26
2018-08-18T08:46:11.299Z,1016.28
2018-08-18T08:47:11.297Z,1016.28
2018-08-18T08:48:11.281Z,1016.28
2018-08-18T08:49:11.327Z,1016.24
2018-08-18T08:50:11.339Z,1016.23
2018-08-18T08:51:11.258Z,1016.25
2018-08-18T08:52:11.251Z,1016.29
2018-08-18T08:53:11.236Z,1016.29
2018-08-18T08:54:11.249Z,1016.23
2018-08-18T08:55:11.209Z,1016.25
2018-08-18T08:56:11.195Z,1016.24
2018-08-18T08:57:11.147Z,1016.23
2018-08-18T08:58:11.179Z,1016.23
2018-08-18T08:59:11.212Z,1016.24
2018-08-18T09:00:11.154Z,1016.22
2018-08-18T09:01:11.144Z,1016.24
2018-08-18T09:02:11.138Z,1016.24
2018-08-18T09:03:11.120Z,1016.29
2018-08-18T09:04:11.128Z,1016.29
2018-08-18T09:05:11.113Z,1016.26
2018-08-18T09:06:11.051Z,1016.26
2018-08-18T09:07:11.084Z,1016.27
2018-08-18T09:08:11.166Z,1016.28
2018-08-18T09:09:11.077Z,1016.26
2018-08-18T09:10:11.067Z,1016.23
2018-08-18T09:11:11.045Z,1016.23
2018-08-18T09:12:10.988Z,1016.26
2018-08-18T09:13:11.022Z,1016.22
2018-08-18T09:14:11.028Z,1016.20
2018-08-18T09:15:11.004Z,1016.19
2018-08-18T09:16:10.990Z,1016.17
2018-08-18T09:17:10.972Z,1016.14
2018-08-18T09:18:10.970Z,1016.10
2018-08-18T09:19:10.982Z,1016.12
2018-08-18T09:20:10.944Z,1016.07
2018-08-18T09:21:10.937Z,1016.10
2018-08-18T09:22:10.937Z,1016.10
2018-08-18T09:23:10.940Z,1016.11
2018-08-18T09:24:10.922Z,1016.09
2018-08-18T09:25:10.893Z,1016.10
2018-08-18T09:26:10.917Z,1016.07
2018-08-18T09:27:10.896Z,1016.12
2018-08-18T09:28:10.858Z,1016.15
2018-08-18T09:29:10.883Z,1016.10
2018-08-18T09:30:10.849Z,1016.08
2018-08-18T09:31:10.832Z,1016.12
2018-08-18T09:32:10.818Z,1016.11
2018-08-18T09:33:10.832Z,1016.09
2018-08-18T09:34:10.819Z,1016.06
2018-08-18T09:35:10.786Z,1016.07
2018-08-18T09:36:10.777Z,1016.07
2018-08-18T09:37:10.721Z,1016.03
2018-08-18T09:38:10.760Z,1016.03
2018-08-18T09:39:10.800Z,1015.98
2018-08-18T09:40:10.741Z,1015.98
2018-08-18T09:41:10.728Z,1016.02
2018-08-18T09:42:10.724Z,1015.98
2018-08-18T09:43:10.699Z,1015.96
2018-08-18T09:44:10.700Z,1015.97
2018-08-18T09:45:10.707Z,1015.98
2018-08-18T09:46:10.678Z,1015.94
2018-08-18T09:47:10.661Z,1015.96
2018-08-18T09:48:10.656Z,1015.99
2018-08-18T09:49:10.645Z,1015.98
2018-08-18T09:50:10.670Z,1015.94
2018-08-18T09:51:10.616Z,1015.94
2018-08-18T09:52:10.608Z,1015.90
2018-08-18T09:53:10.595Z,1015.92
2018-08-18T09:54:10.596Z,1015.90
2018-08-18T09:55:10.568Z,1015.87
2018-08-18T09:56:10.569Z,1015.87
2018-08-18T09:57:10.519Z,1015.91
2018-08-18T09:58:10.541Z,1015.92
2018-08-18T09:59:10.652Z,1015.91
2018-08-18T10:00:10.574Z,1015.90
2018-08-18T10:01:10.493Z,1015.88
2018-08-18T10:02:10.497Z,1015.86
2018-08-18T10:03:10.484Z,1015.93
2018-08-18T10:04:10.477Z,1015.88
2018-08-18T10:05:10.635Z,1015.91
2018-08-18T10:06:10.462Z,1015.89
2018-08-18T10:07:10.451Z,1015.85
2018-08-18T10:08:10.433Z,1015.87
2018-08-18T10:09:10.423Z,1015.86
2018-08-18T10:10:10.452Z,1015.85
2018-08-18T10:11:10.405Z,1015.85
2018-08-18T10:12:10.399Z,1015.84
2018-08-18T10:13:10.384Z,1015.85
2018-08-18T10:14:10.376Z,1015.79
2018-08-18T10:15:10.453Z,1015.74
2018-08-18T10:16:10.352Z,1015.75
2018-08-18T10:17:10.344Z,1015.77
2018-08-18T10:18:10.333Z,1015.71
2018-08-18T10:19:10.321Z,1015.71
2018-08-18T10:20:10.331Z,1015.74
2018-08-18T10:21:10.300Z,1015.72
2018-08-18T10:22:10.286Z,1015.72
2018-08-18T10:23:10.306Z,1015.69
2018-08-18T10:24:10.272Z,1015.73
2018-08-18T10:25:10.260Z,1015.73
2018-08-18T10:26:10.254Z,1015.70
2018-08-18T10:27:10.244Z,1015.67
2018-08-18T10:28:10.247Z,1015.70
2018-08-18T10:29:10.213Z,1015.66
2018-08-18T10:30:10.216Z,1015.73
2018-08-18T10:31:10.191Z,1015.77
2018-08-18T10:32:10.213Z,1015.75
2018-08-18T10:33:10.201Z,1015.79
2018-08-18T10:34:10.161Z,1015.76
2018-08-18T10:35:10.148Z,1015.78
2018-08-18T10:36:10.151Z,1015.81
2018-08-18T10:37:10.133Z,1015.75
2018-08-18T10:38:10.141Z,1015.76
2018-08-18T10:39:10.105Z,1015.70
2018-08-18T10:40:10.100Z,1015.69
2018-08-18T10:41:10.042Z,1015.65
2018-08-18T10:42:10.125Z,1015.65
2018-08-18T10:43:10.091Z,1015.67
2018-08-18T10:44:10.073Z,1015.69
2018-08-18T10:45:10.042Z,1015.67
2018-08-18T10:46:10.029Z,1015.68
2018-08-18T10:47:10.029Z,1015.69
2018-08-18T10:48:10.027Z,1015.71
2018-08-18T10:49:10.000Z,1015.73
2018-08-18T10:50:10.007Z,1015.73
2018-08-18T10:51:09.978Z,1015.74
2018-08-18T10:52:09.974Z,1015.66
2018-08-18T10:53:09.989Z,1015.64
2018-08-18T10:54:09.948Z,1015.63
2018-08-18T10:55:09.936Z,1015.63
2018-08-18T10:56:09.928Z,1015.61
2018-08-18T10:57:09.943Z,1015.59
2018-08-18T10:58:10.062Z,1015.59
2018-08-18T10:59:10.036Z,1015.61
2018-08-18T11:00:09.891Z,1015.61
2018-08-18T11:01:09.882Z,1015.62
2018-08-18T11:02:09.861Z,1015.64
2018-08-18T11:03:09.886Z,1015.59
2018-08-18T11:04:09.881Z,1015.63
2018-08-18T11:05:09.835Z,1015.60
2018-08-18T11:06:09.824Z,1015.62
2018-08-18T11:07:09.817Z,1015.60
2018-08-18T11:08:09.916Z,1015.63
2018-08-18T11:09:09.790Z,1015.59
2018-08-18T11:10:09.781Z,1015.56
2018-08-18T11:11:09.774Z,1015.61
2018-08-18T11:12:09.766Z,1015.60
2018-08-18T11:13:09.771Z,1015.59
2018-08-18T11:14:09.746Z,1015.62
2018-08-18T11:15:09.733Z,1015.61
2018-08-18T11:16:09.718Z,1015.62
2018-08-18T11:17:09.715Z,1015.61
2018-08-18T11:18:09.720Z,1015.60
2018-08-18T11:19:09.690Z,1015.54
2018-08-18T11:20:09.678Z,1015.55
2018-08-18T11:21:09.664Z,1015.53
2018-08-18T11:22:09.654Z,1015.54
2018-08-18T11:23:09.693Z,1015.49
2018-08-18T11:24:09.593Z,1015.51
2018-08-18T11:25:09.619Z,1015.49
2018-08-18T11:26:09.616Z,1015.46
2018-08-18T11:27:09.612Z,1015.50
2018-08-18T11:28:09.596Z,1015.47
2018-08-18T11:29:09.602Z,1015.46
2018-08-18T11:30:09.573Z,1015.40
2018-08-18T11:31:09.560Z,1015.42
2018-08-18T11:32:09.545Z,1015.41
2018-08-18T11:33:09.542Z,1015.38
2018-08-18T11:34:09.564Z,1015.38
2018-08-18T11:35:09.552Z,1015.40
2018-08-18T11:36:09.506Z,1015.40
2018-08-18T11:37:09.501Z,1015.33
2018-08-18T11:38:09.484Z,1015.34
2018-08-18T11:39:09.491Z,1015.32
2018-08-18T11:40:09.458Z,1015.33
2018-08-18T11:41:09.406Z,1015.30
2018-08-18T11:42:09.442Z,1015.31
2018-08-18T11:43:09.437Z,1015.25
2018-08-18T11:44:09.402Z,1015.21
2018-08-18T11:45:09.414Z,1015.23
2018-08-18T11:46:09.404Z,1015.20
2018-08-18T11:47:09.424Z,1015.22
2018-08-18T11:48:09.385Z,1015.15
2018-08-18T11:49:09.408Z,1015.14
2018-08-18T11:50:09.357Z,1015.16
2018-08-18T11:51:09.347Z,1015.17
2018-08-18T11:52:09.355Z,1015.16
2018-08-18T11:53:09.331Z,1015.16
2018-08-18T11:54:09.335Z,1015.18
2018-08-18T11:55:09.343Z,1015.13
2018-08-18T11:56:09.301Z,1015.14
2018-08-18T11:57:09.269Z,1015.16
2018-08-18T11:58:09.273Z,1015.14
2018-08-18T11:59:09.286Z,1015.15
2018-08-18T12:00:09.217Z,1015.15
2018-08-18T12:01:09.296Z,1015.11
2018-08-18T12:02:09.238Z,1015.14
2018-08-18T12:03:09.246Z,1015.14
2018-08-18T12:04:09.228Z,1015.19
2018-08-18T12:05:09.194Z,1015.11